createdAt,value
2019-05-11T00:00:58.177Z,50.90
2019-05-11T00:04:02.730Z,52.77
2019-05-11T00:07:07.150Z,53.60
2019-05-11T00:10:11.630Z,50.20
2019-05-11T00:13:16.028Z,51.27
2019-05-11T00:16:20.397Z,50.17
2019-05-11T00:19:24.922Z,54.10
2019-05-11T00:22:29.315Z,55.10
2019-05-11T00:25:33.696Z,57.87
2019-05-11T00:28:38.078Z,58.83
2019-05-11T00:31:42.466Z,57.70
2019-05-11T00:34:46.818Z,55.10
2019-05-11T00:37:51.296Z,58.40
2019-05-11T00:40:55.721Z,53.97
2019-05-11T00:44:00.127Z,55.73
2019-05-11T00:47:04.488Z,58.97
2019-05-11T00:50:09.937Z,54.90
2019-05-11T00:53:14.218Z,49.53
2019-05-11T00:56:18.547Z,55.60
2019-05-11T00:59:22.925Z,59.67
2019-05-11T01:02:27.325Z,53.07
2019-05-11T01:05:31.651Z,51.57
2019-05-11T01:08:35.950Z,58.60
2019-05-11T01:11:40.212Z,58.27
2019-05-11T01:14:44.521Z,55.37
2019-05-11T01:17:48.804Z,57.80
2019-05-11T01:20:53.097Z,53.87
2019-05-11T01:23:57.387Z,56.27
2019-05-11T01:27:01.707Z,53.60
2019-05-11T01:30:06.392Z,56.47
2019-05-11T01:33:10.718Z,54.30
2019-05-11T01:36:15.087Z,51.30
2019-05-11T01:39:19.408Z,57.47
2019-05-11T01:42:23.754Z,51.57
2019-05-11T01:45:28.040Z,53.93
2019-05-11T01:48:32.394Z,54.13
2019-05-11T01:51:36.624Z,51.90
2019-05-11T01:54:40.910Z,53.00
2019-05-11T01:57:45.309Z,53.97
2019-05-11T02:00:49.669Z,52.43
2019-05-11T02:03:54.007Z,53.23
2019-05-11T02:06:58.338Z,48.13
2019-05-11T02:10:02.624Z,48.90
2019-05-11T02:13:06.927Z,49.03
2019-05-11T02:16:11.332Z,49.87
2019-05-11T02:19:15.672Z,43.63
2019-05-11T02:22:20.148Z,52.30
2019-05-11T02:25:24.418Z,51.07
2019-05-11T02:28:28.676Z,52.97
2019-05-11T02:31:32.958Z,48.30
2019-05-11T02:34:37.343Z,51.27
2019-05-11T02:37:41.792Z,50.90
2019-05-11T02:40:46.083Z,52.07
2019-05-11T02:43:50.271Z,53.40
2019-05-11T02:46:54.787Z,49.67
2019-05-11T02:49:59.103Z,47.73
2019-05-11T02:53:04.605Z,46.10
2019-05-11T02:56:08.949Z,48.63
2019-05-11T02:59:13.206Z,49.93
2019-05-11T03:02:17.565Z,47.03
2019-05-11T03:05:22.000Z,50.07
2019-05-11T03:08:26.471Z,49.80
2019-05-11T03:11:30.840Z,45.40
2019-05-11T03:14:35.282Z,46.87
2019-05-11T03:17:39.645Z,43.63
2019-05-11T03:20:43.953Z,46.17
2019-05-11T03:23:48.346Z,49.00
2019-05-11T03:26:52.595Z,47.33
2019-05-11T03:30:00.837Z,49.27
2019-05-11T03:33:02.948Z,48.33
2019-05-11T03:36:07.252Z,48.17
2019-05-11T03:39:11.584Z,46.97
2019-05-11T03:42:15.973Z,51.07
2019-05-11T03:45:20.352Z,47.40
2019-05-11T03:48:24.643Z,49.07
2019-05-11T03:51:29.061Z,50.20
2019-05-11T03:54:33.994Z,46.00
2019-05-11T03:57:38.435Z,44.90
2019-05-11T04:00:42.781Z,46.87
2019-05-11T04:03:47.181Z,45.27
2019-05-11T04:06:51.482Z,45.60
2019-05-11T04:09:55.845Z,45.57
2019-05-11T04:13:00.259Z,44.83
2019-05-11T04:16:04.532Z,46.37
2019-05-11T04:19:08.757Z,43.23
2019-05-11T04:22:13.008Z,46.77
2019-05-11T04:25:17.757Z,44.03
2019-05-11T04:28:22.117Z,43.80
2019-05-11T04:31:26.546Z,42.33
2019-05-11T04:34:30.812Z,43.27
2019-05-11T04:37:35.804Z,46.73
2019-05-11T04:40:40.410Z,40.57
2019-05-11T04:43:44.925Z,41.23
2019-05-11T04:46:49.352Z,44.00
2019-05-11T04:49:53.779Z,39.10
2019-05-11T04:52:58.315Z,40.73
2019-05-11T04:56:02.876Z,41.27
2019-05-11T04:59:07.183Z,39.63
2019-05-11T05:02:11.589Z,41.83
2019-05-11T05:05:15.967Z,36.17
2019-05-11T05:08:21.196Z,38.60
2019-05-11T05:11:30.582Z,33.37
2019-05-11T05:14:32.776Z,35.07
2019-05-11T05:17:38.697Z,32.07
2019-05-11T05:20:44.018Z,33.97
2019-05-11T05:23:48.516Z,35.33
2019-05-11T05:26:53.466Z,38.70
2019-05-11T05:31:04.095Z,35.10
2019-05-11T05:34:08.114Z,35.50
2019-05-11T05:37:12.996Z,36.90
2019-05-11T05:40:17.039Z,36.00
2019-05-11T05:43:28.140Z,27.40
2019-05-11T05:46:27.950Z,31.57
2019-05-11T05:49:32.037Z,26.67
2019-05-11T05:52:36.600Z,29.77
2019-05-11T05:55:40.539Z,23.93
2019-05-11T05:58:44.540Z,22.80
2019-05-11T06:01:48.528Z,26.00
2019-05-11T06:04:52.521Z,24.73
2019-05-11T06:07:56.604Z,20.37
2019-05-11T06:11:00.750Z,20.33
2019-05-11T06:14:04.894Z,21.33
2019-05-11T06:17:09.216Z,20.93
2019-05-11T06:20:13.695Z,20.03
2019-05-11T06:23:17.658Z,24.53
2019-05-11T06:26:30.580Z,19.03
2019-05-11T06:29:34.818Z,19.67
2019-05-11T06:32:40.245Z,23.03
2019-05-11T06:35:44.179Z,20.43
2019-05-11T06:38:48.467Z,18.10
2019-05-11T06:41:52.425Z,22.63
2019-05-11T06:44:56.458Z,20.03
2019-05-11T06:48:00.675Z,19.87
2019-05-11T06:51:05.863Z,18.30
2019-05-11T06:54:10.360Z,16.60
2019-05-11T06:57:14.941Z,16.27
2019-05-11T07:00:19.649Z,16.80
2019-05-11T07:03:23.945Z,13.83
2019-05-11T07:06:30.543Z,12.70
2019-05-11T07:09:34.025Z,13.97
2019-05-11T07:12:38.322Z,10.53
2019-05-11T07:15:43.310Z,12.83
2019-05-11T07:18:49.511Z,12.37
2019-05-11T07:21:54.924Z,8.90
2019-05-11T07:24:59.714Z,13.47
2019-05-11T07:28:04.138Z,11.80
2019-05-11T07:31:09.135Z,14.30
2019-05-11T07:34:14.316Z,12.50
2019-05-11T07:37:20.041Z,12.73
2019-05-11T07:40:27.811Z,11.47
2019-05-11T07:43:33.520Z,14.47
2019-05-11T07:46:38.492Z,7.33
2019-05-11T07:49:43.716Z,7.97
2019-05-11T07:52:48.461Z,7.30
2019-05-11T07:55:53.148Z,8.17
2019-05-11T07:58:58.904Z,10.47
2019-05-11T08:02:03.657Z,5.23
2019-05-11T08:05:18.276Z,8.47
2019-05-11T08:08:25.107Z,4.10
2019-05-11T08:11:31.402Z,6.57
2019-05-11T08:14:34.611Z,4.77
2019-05-11T08:17:38.766Z,5.40
2019-05-11T08:20:42.987Z,5.47
2019-05-11T08:23:48.393Z,5.53
2019-05-11T08:26:55.369Z,6.90
2019-05-11T08:29:59.573Z,6.90
2019-05-11T08:33:03.845Z,3.40
2019-05-11T08:36:13.131Z,4.60
2019-05-11T08:39:18.324Z,6.00
2019-05-11T08:42:22.828Z,6.63
2019-05-11T08:45:28.094Z,5.07
2019-05-11T08:48:32.997Z,4.53
2019-05-11T08:51:38.847Z,5.53
2019-05-11T08:54:43.538Z,8.37
2019-05-11T08:57:48.122Z,9.50
2019-05-11T09:00:52.820Z,4.17
2019-05-11T09:03:58.315Z,5.97
2019-05-11T09:07:02.935Z,5.53
2019-05-11T09:10:08.171Z,3.37
2019-05-11T09:13:13.371Z,4.67
2019-05-11T09:16:19.196Z,3.07
2019-05-11T09:19:23.747Z,9.13
2019-05-11T09:22:28.591Z,5.23
2019-05-11T09:25:33.095Z,5.27
2019-05-11T09:28:38.512Z,9.03
2019-05-11T09:31:43.066Z,7.67
2019-05-11T09:34:48.537Z,7.87
2019-05-11T09:37:53.207Z,6.70
2019-05-11T09:40:58.562Z,3.60
2019-05-11T09:44:03.928Z,4.77
2019-05-11T09:47:08.855Z,6.63
2019-05-11T09:50:14.242Z,6.30
2019-05-11T09:53:19.099Z,5.17
2019-05-11T09:56:23.617Z,5.23
2019-05-11T09:59:28.439Z,3.90
2019-05-11T10:02:32.991Z,4.10
2019-05-11T10:05:38.389Z,5.07
2019-05-11T10:08:42.967Z,4.77
2019-05-11T10:11:48.095Z,4.00
2019-05-11T10:14:52.867Z,3.47
2019-05-11T10:17:58.899Z,2.97
2019-05-11T10:21:03.866Z,4.27
2019-05-11T10:24:08.669Z,3.97
2019-05-11T10:27:13.287Z,2.77
2019-05-11T10:30:18.870Z,2.93
2019-05-11T10:33:25.460Z,4.20
2019-05-11T10:36:29.888Z,3.97
2019-05-11T10:39:34.333Z,1.83
2019-05-11T10:42:38.875Z,4.87
2019-05-11T10:45:43.505Z,3.63
2019-05-11T10:48:48.502Z,1.60
2019-05-11T10:51:53.186Z,2.07
2019-05-11T10:54:58.604Z,4.93
2019-05-11T10:58:03.302Z,4.73
2019-05-11T11:01:08.847Z,1.67
2019-05-11T11:04:13.625Z,2.03
2019-05-11T11:07:19.440Z,4.97
2019-05-11T11:10:24.155Z,3.53
2019-05-11T11:13:28.588Z,4.27
2019-05-11T11:16:39.310Z,4.63
2019-05-11T11:19:39.214Z,2.57
2019-05-11T11:22:44.366Z,3.73
2019-05-11T11:25:49.303Z,2.67
2019-05-11T11:28:53.777Z,1.70
2019-05-11T11:31:59.137Z,3.10
2019-05-11T11:35:03.640Z,0.97
2019-05-11T11:38:08.822Z,2.20
2019-05-11T11:41:13.467Z,1.53
2019-05-11T11:44:18.602Z,2.80
2019-05-11T11:47:24.437Z,2.77
2019-05-11T11:50:28.894Z,0.60
2019-05-11T11:53:33.284Z,3.97
2019-05-11T11:56:38.111Z,2.17
2019-05-11T11:59:42.614Z,9.30
2019-05-11T12:02:48.683Z,19.67
2019-05-11T12:05:54.467Z,4.60
2019-05-11T12:09:00.940Z,2.10
2019-05-11T12:12:05.404Z,1.83
2019-05-11T12:15:10.126Z,3.80
2019-05-11T12:18:14.823Z,2.17
2019-05-11T12:21:19.456Z,1.63
2019-05-11T12:24:23.969Z,1.87
2019-05-11T12:27:28.856Z,1.10
2019-05-11T12:30:33.345Z,3.03
2019-05-11T12:33:38.701Z,1.70
2019-05-11T12:36:44.249Z,3.23
2019-05-11T12:39:48.789Z,1.20
2019-05-11T12:42:53.355Z,4.17
2019-05-11T12:45:58.819Z,2.67
2019-05-11T12:49:03.442Z,2.57
2019-05-11T12:52:08.331Z,2.97
2019-05-11T12:55:13.175Z,1.77
2019-05-11T12:58:18.915Z,1.27
2019-05-11T13:01:23.269Z,3.60
2019-05-11T13:04:28.200Z,1.97
2019-05-11T13:07:32.944Z,3.03
2019-05-11T13:10:37.694Z,2.80
2019-05-11T13:13:43.212Z,1.07
2019-05-11T13:16:48.378Z,1.17
2019-05-11T13:19:53.011Z,2.90
2019-05-11T13:22:58.782Z,1.70
2019-05-11T13:26:03.394Z,1.43
2019-05-11T13:29:07.998Z,2.93
2019-05-11T13:32:12.507Z,1.80
2019-05-11T13:35:17.919Z,1.40
2019-05-11T13:38:22.605Z,1.60
2019-05-11T13:41:28.706Z,1.03
2019-05-11T13:44:35.420Z,1.93
2019-05-11T13:47:51.294Z,1.33
2019-05-11T13:50:47.915Z,3.40
2019-05-11T13:53:52.742Z,2.30
2019-05-11T13:56:57.715Z,1.73
2019-05-11T14:00:02.876Z,1.13
2019-05-11T14:03:08.844Z,1.17
2019-05-11T14:06:13.344Z,1.30
2019-05-11T14:09:18.436Z,0.67
2019-05-11T14:12:23.138Z,1.60
2019-05-11T14:15:28.186Z,2.47
2019-05-11T14:18:32.820Z,0.70
2019-05-11T14:21:38.477Z,1.37
2019-05-11T14:24:43.006Z,1.90
2019-05-11T14:27:48.638Z,1.20
2019-05-11T14:30:53.105Z,1.53
2019-05-11T14:33:57.926Z,4.03
2019-05-11T14:37:02.678Z,1.27
2019-05-11T14:40:08.968Z,1.00
2019-05-11T14:43:13.720Z,2.70
2019-05-11T14:46:18.335Z,1.57
2019-05-11T14:49:27.650Z,1.80
2019-05-11T14:52:32.567Z,1.63
2019-05-11T14:55:38.253Z,1.63
2019-05-11T14:58:43.280Z,2.40
2019-05-11T15:01:49.425Z,2.13
2019-05-11T15:04:53.812Z,1.60
2019-05-11T15:07:58.621Z,2.47
2019-05-11T15:11:03.077Z,1.70
2019-05-11T15:14:08.247Z,0.80
2019-05-11T15:17:12.908Z,1.30
2019-05-11T15:20:18.460Z,1.33
2019-05-11T15:23:23.167Z,1.13
2019-05-11T15:26:29.474Z,1.07
2019-05-11T15:29:33.838Z,1.80
2019-05-11T15:32:39.847Z,2.73
2019-05-11T15:35:44.744Z,1.77
2019-05-11T15:38:49.589Z,1.70
2019-05-11T15:42:07.299Z,2.23
2019-05-11T15:45:00.313Z,1.90
2019-05-11T15:48:04.749Z,1.33
2019-05-11T15:51:09.116Z,2.00
2019-05-11T15:54:14.211Z,2.97
2019-05-11T15:57:19.567Z,5.17
2019-05-11T16:00:25.448Z,6.40
2019-05-11T16:03:31.072Z,1.47
2019-05-11T16:06:36.327Z,3.93
2019-05-11T16:09:41.380Z,1.57
2019-05-11T16:12:50.109Z,1.90
2019-05-11T16:15:55.181Z,2.47
2019-05-11T16:19:11.015Z,1.57
2019-05-11T16:22:10.077Z,1.93
2019-05-11T16:25:14.434Z,2.77
2019-05-11T16:28:19.545Z,1.77
2019-05-11T16:31:23.862Z,2.23
2019-05-11T16:34:28.656Z,2.10
2019-05-11T16:37:34.127Z,3.63
2019-05-11T16:40:38.790Z,4.90
2019-05-11T16:43:44.292Z,4.53
2019-05-11T16:46:50.904Z,3.70
2019-05-11T16:49:57.985Z,4.23
2019-05-11T16:53:03.654Z,1.80
2019-05-11T16:56:08.551Z,2.97
2019-05-11T16:59:13.387Z,3.23
2019-05-11T17:02:18.808Z,2.63
2019-05-11T17:05:26.970Z,4.40
2019-05-11T17:08:30.951Z,4.13
2019-05-11T17:11:38.087Z,10.07
2019-05-11T17:14:58.692Z,5.63
2019-05-11T17:18:03.621Z,7.60
2019-05-11T17:21:08.767Z,9.77
2019-05-11T17:24:13.561Z,10.93
2019-05-11T17:27:18.081Z,10.30
2019-05-11T17:30:23.181Z,8.80
2019-05-11T17:33:29.780Z,17.93
2019-05-11T17:36:34.945Z,13.67
2019-05-11T17:39:40.541Z,15.17
2019-05-11T17:42:48.052Z,16.67
2019-05-11T17:45:53.585Z,13.47
2019-05-11T17:48:58.717Z,11.70
2019-05-11T17:52:03.261Z,11.23
2019-05-11T17:55:10.210Z,12.70
2019-05-11T17:58:14.692Z,17.27
2019-05-11T18:01:19.409Z,10.47
2019-05-11T18:04:24.029Z,11.97
2019-05-11T18:07:31.020Z,13.77
2019-05-11T18:10:35.657Z,17.37
2019-05-11T18:13:41.191Z,18.57
2019-05-11T18:16:48.106Z,16.03
2019-05-11T18:19:53.748Z,15.60
2019-05-11T18:22:58.421Z,12.87
2019-05-11T18:26:03.154Z,13.17
2019-05-11T18:29:08.690Z,10.73
2019-05-11T18:32:13.183Z,11.80
2019-05-11T18:35:19.492Z,14.97
2019-05-11T18:38:23.954Z,11.77
2019-05-11T18:41:29.680Z,11.77
2019-05-11T18:44:34.631Z,12.33
2019-05-11T18:47:40.543Z,13.03
2019-05-11T18:50:48.461Z,17.33
2019-05-11T18:53:54.449Z,13.90
2019-05-11T18:56:58.979Z,14.67
2019-05-11T19:00:03.336Z,19.40
2019-05-11T19:03:08.991Z,20.40
2019-05-11T19:06:13.965Z,19.13
2019-05-11T19:09:18.471Z,18.00
2019-05-11T19:12:23.140Z,16.00
2019-05-11T19:15:29.311Z,16.53
2019-05-11T19:18:34.087Z,25.37
2019-05-11T19:21:39.665Z,17.57
2019-05-11T19:24:44.666Z,15.50
2019-05-11T19:27:50.782Z,18.20
2019-05-11T19:30:56.311Z,16.77
2019-05-11T19:34:00.802Z,23.40
2019-05-11T19:37:05.233Z,22.20
2019-05-11T19:40:10.757Z,22.57
2019-05-11T19:43:18.469Z,22.97
2019-05-11T19:46:23.189Z,26.27
2019-05-11T19:49:28.296Z,22.43
2019-05-11T19:52:34.679Z,21.50
2019-05-11T19:55:39.074Z,23.90
2019-05-11T19:58:44.411Z,22.23
2019-05-11T20:01:50.102Z,20.30
2019-05-11T20:04:55.613Z,21.97
2019-05-11T20:08:01.002Z,24.17
2019-05-11T20:11:08.234Z,20.83
2019-05-11T20:14:13.664Z,23.10
2019-05-11T20:17:19.821Z,22.43
2019-05-11T20:20:25.025Z,18.60
2019-05-11T20:23:29.904Z,24.43
2019-05-11T20:26:34.353Z,32.57
2019-05-11T20:29:39.320Z,27.37
2019-05-11T20:32:49.082Z,31.07
2019-05-11T20:35:54.675Z,34.17
2019-05-11T20:38:59.737Z,28.07
2019-05-11T20:42:04.421Z,33.37
2019-05-11T20:45:09.201Z,26.17
2019-05-11T20:48:13.667Z,25.53
2019-05-11T20:51:33.080Z,23.47
2019-05-11T20:54:25.543Z,25.70
2019-05-11T20:57:31.057Z,30.13
2019-05-11T21:00:37.946Z,31.17
2019-05-11T21:03:42.998Z,27.00
2019-05-11T21:06:47.653Z,26.43
2019-05-11T21:09:52.205Z,29.87
2019-05-11T21:12:58.209Z,30.63
2019-05-11T21:16:02.614Z,29.00
2019-05-11T21:19:08.355Z,27.17
2019-05-11T21:22:13.806Z,27.60
2019-05-11T21:25:19.510Z,26.83
2019-05-11T21:28:24.263Z,25.70
2019-05-11T21:31:30.089Z,24.50
2019-05-11T21:34:34.482Z,24.73
2019-05-11T21:37:39.284Z,24.63
2019-05-11T21:40:43.755Z,22.23
2019-05-11T21:43:50.280Z,23.47
2019-05-11T21:46:54.806Z,26.23
2019-05-11T21:49:59.368Z,24.23
2019-05-11T21:53:03.696Z,21.73
2019-05-11T21:56:09.382Z,20.83
2019-05-11T21:59:13.915Z,25.47
2019-05-11T22:02:18.656Z,22.70
2019-05-11T22:05:24.373Z,19.70
2019-05-11T22:08:28.748Z,20.53
2019-05-11T22:11:33.629Z,18.80
2019-05-11T22:14:39.312Z,16.77
2019-05-11T22:17:44.095Z,20.50
2019-05-11T22:20:48.643Z,16.23
2019-05-11T22:23:53.257Z,17.10
2019-05-11T22:27:00.212Z,17.47
2019-05-11T22:30:08.354Z,19.07
2019-05-11T22:33:10.650Z,15.63
2019-05-11T22:36:15.443Z,15.57
2019-05-11T22:39:20.975Z,22.40
2019-05-11T22:42:28.083Z,19.87
2019-05-11T22:45:32.916Z,14.57
2019-05-11T22:48:38.362Z,17.30
2019-05-11T22:51:42.849Z,22.07
2019-05-11T22:54:48.544Z,18.20
2019-05-11T22:57:53.931Z,22.60
2019-05-11T23:00:59.804Z,20.50
2019-05-11T23:04:05.309Z,18.57
2019-05-11T23:07:09.644Z,19.40
2019-05-11T23:10:14.034Z,16.63
2019-05-11T23:13:18.782Z,19.73
2019-05-11T23:16:23.562Z,16.60
2019-05-11T23:19:27.999Z,18.60
2019-05-11T23:22:47.714Z,17.90
2019-05-11T23:25:40.532Z,19.20
2019-05-11T23:28:44.989Z,18.07
2019-05-11T23:31:50.056Z,16.37
2019-05-11T23:34:54.638Z,17.63
2019-05-11T23:37:59.160Z,17.10
2019-05-11T23:41:03.598Z,16.93
2019-05-11T23:44:10.463Z,16.20
2019-05-11T23:47:14.873Z,15.00
2019-05-11T23:50:19.562Z,17.53
2019-05-11T23:53:23.828Z,16.10
2019-05-11T23:56:28.271Z,16.67
2019-05-11T23:59:33.483Z,14.33
